createdAt,value
2018-06-05T00:01:07.424Z,88.40
2018-06-05T00:03:35.560Z,88.20
2018-06-05T00:06:03.651Z,88.30
2018-06-05T00:08:31.742Z,88.40
2018-06-05T00:10:59.855Z,88.60
2018-06-05T00:13:27.974Z,88.60
2018-06-05T00:15:56.186Z,88.90
2018-06-05T00:18:24.264Z,89.00
2018-06-05T00:23:20.283Z,89.20
2018-06-05T00:25:48.386Z,89.20
2018-06-05T00:28:16.459Z,89.20
2018-06-05T00:30:44.568Z,89.50
2018-06-05T00:33:12.624Z,89.40
2018-06-05T00:35:40.714Z,89.40
2018-06-05T00:38:08.871Z,89.10
2018-06-05T00:40:36.937Z,88.90
2018-06-05T00:43:05.035Z,89.00
2018-06-05T00:45:33.140Z,88.90
2018-06-05T00:48:01.260Z,88.90
2018-06-05T00:50:29.358Z,88.90
2018-06-05T00:52:57.450Z,88.90
2018-06-05T00:55:25.566Z,88.90
2018-06-05T00:57:53.638Z,89.00
2018-06-05T01:00:21.824Z,89.00
2018-06-05T01:02:49.882Z,89.10
2018-06-05T01:05:18.018Z,89.00
2018-06-05T01:07:46.140Z,89.10
2018-06-05T01:10:14.316Z,89.90
2018-06-05T01:12:42.371Z,89.30
2018-06-05T01:15:10.472Z,89.30
2018-06-05T01:17:38.558Z,89.40
2018-06-05T01:20:06.666Z,90.00
2018-06-05T01:22:34.777Z,90.00
2018-06-05T01:25:02.862Z,90.00
2018-06-05T01:27:30.969Z,89.80
2018-06-05T01:29:59.109Z,89.70
2018-06-05T01:32:27.215Z,89.70
2018-06-05T01:34:55.274Z,89.50
2018-06-05T01:37:23.447Z,89.60
2018-06-05T01:39:51.542Z,89.60
2018-06-05T01:42:19.611Z,89.50
2018-06-05T01:47:15.700Z,89.40
2018-06-05T01:49:43.770Z,89.30
2018-06-05T01:52:11.866Z,89.20
2018-06-05T01:54:39.986Z,89.30
2018-06-05T01:57:08.091Z,89.40
2018-06-05T01:59:36.210Z,89.50
2018-06-05T02:02:04.293Z,89.40
2018-06-05T02:04:32.414Z,89.40
2018-06-05T02:07:00.498Z,89.00
2018-06-05T02:09:28.647Z,89.40
2018-06-05T02:11:56.744Z,89.60
2018-06-05T02:14:24.850Z,89.50
2018-06-05T02:16:52.935Z,89.50
2018-06-05T02:19:21.043Z,89.30
2018-06-05T02:21:49.124Z,89.20
2018-06-05T02:24:17.204Z,88.80
2018-06-05T02:26:45.286Z,88.80
2018-06-05T02:29:13.366Z,88.60
2018-06-05T02:31:41.606Z,88.70
2018-06-05T02:34:09.678Z,88.70
2018-06-05T02:36:37.848Z,88.70
2018-06-05T02:39:07.276Z,88.70
2018-06-05T02:41:35.609Z,89.60
2018-06-05T02:44:03.830Z,88.80
2018-06-05T02:46:31.955Z,89.00
2018-06-05T02:49:00.071Z,89.20
2018-06-05T02:51:28.144Z,89.20
2018-06-05T02:53:56.222Z,89.30
2018-06-05T02:56:24.318Z,89.20
2018-06-05T02:58:52.447Z,89.90
2018-06-05T03:01:20.573Z,89.80
2018-06-05T03:03:48.651Z,89.70
2018-06-05T03:06:16.739Z,89.70
2018-06-05T03:08:44.834Z,89.70
2018-06-05T03:11:13.676Z,89.70
2018-06-05T03:13:41.846Z,89.70
2018-06-05T03:16:09.947Z,90.20
2018-06-05T03:18:38.022Z,89.80
2018-06-05T03:21:06.267Z,89.80
2018-06-05T03:23:34.394Z,89.90
2018-06-05T03:26:02.514Z,90.00
2018-06-05T03:28:30.610Z,90.00
2018-06-05T03:30:58.720Z,90.00
2018-06-05T03:33:26.794Z,90.00
2018-06-05T03:35:54.931Z,90.00
2018-06-05T03:38:23.069Z,90.00
2018-06-05T03:40:51.258Z,89.80
2018-06-05T03:43:19.342Z,89.60
2018-06-05T03:45:47.418Z,89.60
2018-06-05T03:48:15.494Z,89.60
2018-06-05T03:50:43.958Z,89.90
2018-06-05T03:53:12.027Z,89.70
2018-06-05T03:55:40.137Z,89.60
2018-06-05T03:58:08.218Z,89.50
2018-06-05T04:00:36.298Z,89.40
2018-06-05T04:05:32.622Z,89.60
2018-06-05T04:08:00.860Z,89.40
2018-06-05T04:10:29.024Z,89.40
2018-06-05T04:12:57.166Z,89.30
2018-06-05T04:15:25.822Z,89.40
2018-06-05T04:17:53.905Z,89.40
2018-06-05T04:20:22.024Z,89.20
2018-06-05T04:22:50.096Z,89.10
2018-06-05T04:25:18.274Z,89.00
2018-06-05T04:27:46.443Z,89.00
2018-06-05T04:30:14.503Z,88.80
2018-06-05T04:32:42.590Z,88.80
2018-06-05T04:35:10.706Z,88.70
2018-06-05T04:37:38.860Z,88.80
2018-06-05T04:40:06.994Z,88.90
2018-06-05T04:42:35.106Z,88.90
2018-06-05T04:45:03.195Z,89.20
2018-06-05T04:47:31.278Z,89.40
2018-06-05T04:49:59.410Z,89.50
2018-06-05T04:52:27.790Z,89.70
2018-06-05T04:54:55.875Z,89.80
2018-06-05T04:57:23.994Z,89.80
2018-06-05T04:59:52.090Z,89.90
2018-06-05T05:02:20.265Z,90.00
2018-06-05T05:04:48.659Z,90.00
2018-06-05T05:07:16.763Z,90.30
2018-06-05T05:09:44.830Z,90.00
2018-06-05T05:12:13.007Z,90.10
2018-06-05T05:14:41.174Z,90.10
2018-06-05T05:17:09.262Z,90.20
2018-06-05T05:19:37.385Z,90.20
2018-06-05T05:22:05.574Z,90.30
2018-06-05T05:24:33.672Z,90.40
2018-06-05T05:27:01.843Z,90.50
2018-06-05T05:29:29.918Z,90.50
2018-06-05T05:31:58.055Z,90.60
2018-06-05T05:34:26.172Z,90.80
2018-06-05T05:36:54.295Z,90.80
2018-06-05T05:39:22.411Z,90.70
2018-06-05T05:41:50.494Z,91.00
2018-06-05T05:44:18.619Z,91.40
2018-06-05T05:46:46.702Z,91.60
2018-06-05T05:49:14.786Z,91.40
2018-06-05T05:51:42.858Z,91.50
2018-06-05T05:54:10.938Z,91.50
2018-06-05T05:56:39.042Z,91.50
2018-06-05T06:01:34.994Z,91.70
2018-06-05T06:04:03.142Z,91.70
2018-06-05T06:06:31.338Z,91.80
2018-06-05T06:08:59.506Z,92.00
2018-06-05T06:11:27.642Z,92.20
2018-06-05T06:13:55.801Z,92.50
2018-06-05T06:16:23.960Z,92.70
2018-06-05T06:18:52.058Z,92.90
2018-06-05T06:21:20.165Z,93.10
2018-06-05T06:23:48.242Z,93.30
2018-06-05T06:28:44.280Z,93.10
2018-06-05T06:31:12.371Z,93.10
2018-06-05T06:33:40.554Z,93.10
2018-06-05T06:36:08.628Z,93.10
2018-06-05T06:38:36.776Z,93.00
2018-06-05T06:41:04.792Z,93.00
2018-06-05T06:43:32.914Z,93.00
2018-06-05T06:46:01.018Z,92.80
2018-06-05T06:48:29.094Z,92.80
2018-06-05T06:50:57.175Z,92.70
2018-06-05T06:53:25.283Z,92.60
2018-06-05T06:55:53.968Z,92.50
2018-06-05T06:58:22.059Z,92.50
2018-06-05T07:00:50.164Z,92.40
2018-06-05T07:03:18.235Z,92.30
2018-06-05T07:05:46.415Z,92.20
2018-06-05T07:08:14.507Z,92.10
2018-06-05T07:10:42.656Z,91.90
2018-06-05T07:13:10.831Z,91.80
2018-06-05T07:15:38.927Z,91.60
2018-06-05T07:18:07.246Z,91.60
2018-06-05T07:20:35.344Z,91.40
2018-06-05T07:23:03.477Z,91.30
2018-06-05T07:25:31.631Z,91.20
2018-06-05T07:27:59.714Z,91.00
2018-06-05T07:30:27.851Z,90.50
2018-06-05T07:32:55.946Z,89.40
2018-06-05T07:35:24.085Z,89.10
2018-06-05T07:37:52.232Z,88.50
2018-06-05T07:40:20.369Z,88.30
2018-06-05T07:42:48.442Z,87.70
2018-06-05T07:45:16.583Z,86.80
2018-06-05T07:47:44.758Z,86.10
2018-06-05T07:50:12.819Z,85.70
2018-06-05T07:52:40.950Z,85.60
2018-06-05T07:55:09.044Z,85.20
2018-06-05T07:57:37.151Z,85.20
2018-06-05T08:00:05.286Z,84.80
2018-06-05T08:02:33.406Z,83.60
2018-06-05T08:05:01.575Z,83.30
2018-06-05T08:07:29.650Z,82.50
2018-06-05T08:09:57.918Z,81.60
2018-06-05T08:12:25.993Z,81.30
2018-06-05T08:14:54.142Z,81.00
2018-06-05T08:17:22.341Z,80.90
2018-06-05T08:19:50.436Z,80.20
2018-06-05T08:22:18.543Z,79.80
2018-06-05T08:24:46.583Z,79.70
2018-06-05T08:27:14.830Z,79.50
2018-06-05T08:29:42.926Z,79.20
2018-06-05T08:32:15.662Z,78.60
2018-06-05T08:34:43.859Z,79.00
2018-06-05T08:37:11.933Z,78.40
2018-06-05T08:39:40.064Z,78.70
2018-06-05T08:42:08.145Z,78.90
2018-06-05T08:44:36.203Z,79.00
2018-06-05T08:47:04.430Z,79.10
2018-06-05T08:49:32.595Z,79.40
2018-06-05T08:52:00.719Z,79.40
2018-06-05T08:54:28.795Z,79.40
2018-06-05T08:56:56.934Z,79.30
2018-06-05T08:59:24.999Z,79.40
2018-06-05T09:01:53.074Z,79.40
2018-06-05T09:04:21.174Z,79.30
2018-06-05T09:06:49.234Z,79.20
2018-06-05T09:09:17.439Z,78.40
2018-06-05T09:11:45.545Z,78.00
2018-06-05T09:14:13.615Z,77.30
2018-06-05T09:16:41.717Z,77.00
2018-06-05T09:19:09.888Z,76.80
2018-06-05T09:21:38.022Z,76.50
2018-06-05T09:24:06.106Z,76.40
2018-06-05T09:26:34.190Z,75.80
2018-06-05T09:29:02.461Z,75.30
2018-06-05T09:31:30.436Z,74.40
2018-06-05T09:33:58.545Z,72.50
2018-06-05T09:36:26.651Z,73.00
2018-06-05T09:38:54.735Z,72.50
2018-06-05T09:41:22.873Z,72.30
2018-06-05T09:43:50.933Z,72.20
2018-06-05T09:46:19.162Z,71.80
2018-06-05T09:48:47.611Z,71.30
2018-06-05T09:51:15.852Z,70.80
2018-06-05T09:53:43.947Z,70.80
2018-06-05T09:56:12.057Z,70.80
2018-06-05T09:58:40.141Z,71.00
2018-06-05T10:01:08.239Z,70.50
2018-06-05T10:03:36.310Z,69.80
2018-06-05T10:06:04.426Z,69.50
2018-06-05T10:08:32.532Z,68.90
2018-06-05T10:11:00.667Z,68.50
2018-06-05T10:13:28.782Z,68.10
2018-06-05T10:15:56.928Z,68.10
2018-06-05T10:18:25.089Z,67.80
2018-06-05T10:20:53.198Z,67.10
2018-06-05T10:23:21.274Z,67.00
2018-06-05T10:25:49.355Z,66.80
2018-06-05T10:28:17.441Z,66.90
2018-06-05T10:30:45.550Z,66.80
2018-06-05T10:33:13.613Z,66.40
2018-06-05T10:35:41.752Z,65.70
2018-06-05T10:38:09.839Z,65.40
2018-06-05T10:40:37.945Z,65.10
2018-06-05T10:43:06.038Z,65.00
2018-06-05T10:45:34.158Z,64.00
2018-06-05T10:48:02.255Z,63.50
2018-06-05T10:50:30.368Z,63.30
2018-06-05T10:52:58.466Z,63.20
2018-06-05T10:55:26.555Z,63.50
2018-06-05T11:00:22.684Z,63.20
2018-06-05T11:02:50.731Z,63.20
2018-06-05T11:05:18.882Z,62.80
2018-06-05T11:07:46.984Z,62.40
2018-06-05T11:10:15.072Z,62.20
2018-06-05T11:12:43.220Z,61.80
2018-06-05T11:15:11.297Z,61.40
2018-06-05T11:17:39.472Z,61.10
2018-06-05T11:20:07.540Z,61.70
2018-06-05T11:22:35.695Z,61.60
2018-06-05T11:25:03.764Z,61.50
2018-06-05T11:27:31.918Z,62.00
2018-06-05T11:29:59.990Z,61.90
2018-06-05T11:32:28.090Z,60.60
2018-06-05T11:34:56.158Z,61.00
2018-06-05T11:37:24.256Z,60.40
2018-06-05T11:39:52.398Z,60.60
2018-06-05T11:42:20.470Z,60.50
2018-06-05T11:44:48.890Z,60.30
2018-06-05T11:47:16.966Z,59.90
2018-06-05T11:49:45.163Z,59.70
2018-06-05T11:52:13.232Z,59.40
2018-06-05T11:54:41.382Z,59.50
2018-06-05T11:57:09.515Z,59.30
2018-06-05T11:59:37.586Z,58.80
2018-06-05T12:02:05.964Z,59.00
2018-06-05T12:04:34.048Z,59.30
2018-06-05T12:07:02.103Z,59.00
2018-06-05T12:09:30.191Z,58.90
2018-06-05T12:11:58.318Z,59.30
2018-06-05T12:14:26.529Z,59.10
2018-06-05T12:16:54.611Z,59.00
2018-06-05T12:19:22.711Z,58.80
2018-06-05T12:21:50.808Z,58.50
2018-06-05T12:24:19.128Z,57.90
2018-06-05T12:26:47.197Z,58.90
2018-06-05T12:29:15.264Z,57.20
2018-06-05T12:31:43.441Z,58.00
2018-06-05T12:34:11.557Z,58.20
2018-06-05T12:36:39.663Z,58.10
2018-06-05T12:39:08.394Z,58.40
2018-06-05T12:41:36.525Z,57.90
2018-06-05T12:44:04.822Z,57.70
2018-06-05T12:46:32.923Z,57.80
2018-06-05T12:49:01.410Z,57.90
2018-06-05T12:51:29.484Z,57.80
2018-06-05T12:53:57.583Z,57.10
2018-06-05T12:56:25.727Z,57.20
2018-06-05T12:58:53.827Z,56.40
2018-06-05T13:01:21.895Z,56.20
2018-06-05T13:03:49.970Z,56.40
2018-06-05T13:06:18.186Z,56.30
2018-06-05T13:08:46.322Z,57.20
2018-06-05T13:11:14.519Z,56.30
2018-06-05T13:13:42.602Z,56.80
2018-06-05T13:16:10.711Z,57.40
2018-06-05T13:18:38.836Z,56.80
2018-06-05T13:21:07.063Z,56.80
2018-06-05T13:23:35.204Z,55.70
2018-06-05T13:26:03.328Z,55.70
2018-06-05T13:28:31.442Z,56.30
2018-06-05T13:30:59.566Z,56.70
2018-06-05T13:33:27.684Z,55.80
2018-06-05T13:35:55.810Z,55.40
2018-06-05T13:38:23.942Z,55.10
2018-06-05T13:40:52.111Z,55.10
2018-06-05T13:43:20.255Z,54.80
2018-06-05T13:48:16.327Z,54.50
2018-06-05T13:50:44.533Z,54.50
2018-06-05T13:53:12.586Z,54.80
2018-06-05T13:55:40.706Z,54.90
2018-06-05T13:58:08.789Z,54.80
2018-06-05T14:03:05.162Z,54.50
2018-06-05T14:05:33.236Z,54.20
2018-06-05T14:08:01.369Z,53.80
2018-06-05T14:10:29.538Z,53.90
2018-06-05T14:12:57.671Z,52.20
2018-06-05T14:15:25.795Z,52.30
2018-06-05T14:17:53.876Z,52.70
2018-06-05T14:20:21.963Z,52.30
2018-06-05T14:22:50.024Z,52.00
2018-06-05T14:25:20.779Z,51.70
2018-06-05T14:27:48.861Z,51.20
2018-06-05T14:30:16.946Z,51.50
2018-06-05T14:32:45.055Z,50.90
2018-06-05T14:35:13.148Z,50.90
2018-06-05T14:37:41.242Z,50.20
2018-06-05T14:40:09.328Z,50.10
2018-06-05T14:42:37.439Z,50.70
2018-06-05T14:45:05.595Z,50.70
2018-06-05T14:47:33.691Z,50.60
2018-06-05T14:50:02.759Z,50.00
2018-06-05T14:52:30.924Z,49.20
2018-06-05T14:54:59.594Z,48.90
2018-06-05T14:57:27.695Z,48.50
2018-06-05T14:59:55.758Z,48.20
2018-06-05T15:02:23.846Z,48.60
2018-06-05T15:04:53.422Z,47.90
2018-06-05T15:07:21.541Z,48.00
2018-06-05T15:09:50.235Z,48.60
2018-06-05T15:12:18.358Z,47.30
2018-06-05T15:14:46.450Z,46.90
2018-06-05T15:19:42.725Z,47.00
2018-06-05T15:24:38.734Z,45.90
2018-06-05T15:27:06.962Z,45.20
2018-06-05T15:29:35.116Z,45.00
2018-06-05T15:32:03.269Z,45.10
2018-06-05T15:34:31.490Z,44.50
2018-06-05T15:36:59.808Z,44.20
2018-06-05T15:39:27.886Z,44.50
2018-06-05T15:41:55.991Z,44.20
2018-06-05T15:44:24.137Z,44.20
2018-06-05T15:46:52.218Z,44.60
2018-06-05T15:49:20.873Z,44.30
2018-06-05T15:51:49.248Z,43.50
2018-06-05T15:54:17.378Z,43.20
2018-06-05T15:56:45.456Z,42.90
2018-06-05T15:59:13.521Z,42.80
2018-06-05T16:01:42.542Z,42.50
2018-06-05T16:04:10.701Z,42.00
2018-06-05T16:06:38.859Z,41.40
2018-06-05T16:09:08.678Z,40.60
2018-06-05T16:11:37.067Z,40.20
2018-06-05T16:14:05.169Z,40.20
2018-06-05T16:16:33.306Z,39.70
2018-06-05T16:19:01.418Z,38.20
2018-06-05T16:21:29.522Z,39.30
2018-06-05T16:23:57.638Z,39.30
2018-06-05T16:26:25.761Z,39.20
2018-06-05T16:28:53.800Z,39.20
2018-06-05T16:31:21.886Z,39.40
2018-06-05T16:33:50.052Z,39.50
2018-06-05T16:36:18.130Z,39.80
2018-06-05T16:38:46.256Z,39.30
2018-06-05T16:41:14.392Z,39.10
2018-06-05T16:43:42.570Z,38.80
2018-06-05T16:46:10.642Z,39.30
2018-06-05T16:48:38.841Z,38.80
2018-06-05T16:51:07.040Z,38.60
2018-06-05T16:53:35.247Z,38.10
2018-06-05T16:56:03.423Z,38.20
2018-06-05T17:00:59.436Z,39.50
2018-06-05T17:03:27.563Z,41.30
2018-06-05T17:05:55.696Z,43.70
2018-06-05T17:08:23.788Z,45.90
2018-06-05T17:10:51.874Z,47.70
2018-06-05T17:13:20.021Z,49.10
2018-06-05T17:15:48.163Z,50.40
2018-06-05T17:18:16.327Z,51.40
2018-06-05T17:20:44.576Z,51.80
2018-06-05T17:23:15.053Z,52.50
2018-06-05T17:25:43.158Z,53.40
2018-06-05T17:28:11.278Z,53.80
2018-06-05T17:30:39.488Z,54.40
2018-06-05T17:33:07.583Z,55.20
2018-06-05T17:35:35.707Z,55.80
2018-06-05T17:38:03.827Z,56.50
2018-06-05T17:40:31.991Z,56.90
2018-06-05T17:43:00.067Z,57.40
2018-06-05T17:45:28.827Z,58.00
2018-06-05T17:47:56.945Z,58.30
2018-06-05T17:50:25.186Z,58.60
2018-06-05T17:52:53.315Z,59.10
2018-06-05T17:55:21.394Z,59.60
2018-06-05T17:57:49.477Z,59.90
2018-06-05T18:00:17.556Z,60.20
2018-06-05T18:02:45.619Z,60.20
2018-06-05T18:05:13.744Z,61.50
2018-06-05T18:07:41.851Z,61.10
2018-06-05T18:10:09.938Z,61.50
2018-06-05T18:12:38.170Z,61.90
2018-06-05T18:15:06.251Z,62.20
2018-06-05T18:17:34.864Z,62.50
2018-06-05T18:20:03.059Z,62.70
2018-06-05T18:22:31.998Z,63.90
2018-06-05T18:25:00.120Z,63.80
2018-06-05T18:29:56.091Z,64.20
2018-06-05T18:32:24.210Z,65.10
2018-06-05T18:34:52.355Z,64.30
2018-06-05T18:37:20.839Z,64.40
2018-06-05T18:39:49.275Z,64.30
2018-06-05T18:42:17.469Z,64.60
2018-06-05T18:44:45.547Z,64.90
2018-06-05T18:47:13.634Z,65.00
2018-06-05T18:49:41.826Z,65.10
2018-06-05T18:52:09.922Z,65.30
2018-06-05T18:54:38.151Z,65.50
2018-06-05T18:57:06.289Z,65.90
2018-06-05T18:59:35.032Z,66.20
2018-06-05T19:02:03.158Z,66.70
2018-06-05T19:04:31.280Z,66.70
2018-06-05T19:06:59.390Z,67.50
2018-06-05T19:09:27.510Z,67.50
2018-06-05T19:11:55.685Z,68.00
2018-06-05T19:14:23.786Z,68.00
2018-06-05T19:16:51.860Z,68.10
2018-06-05T19:19:19.994Z,68.40
2018-06-05T19:21:49.111Z,68.50
2018-06-05T19:24:17.291Z,68.80
2018-06-05T19:26:45.413Z,68.90
2018-06-05T19:29:13.553Z,69.20
2018-06-05T19:31:41.658Z,69.40
2018-06-05T19:34:09.745Z,69.40
2018-06-05T19:36:37.980Z,69.60
2018-06-05T19:39:07.639Z,69.90
2018-06-05T19:41:35.748Z,70.20
2018-06-05T19:44:03.831Z,70.40
2018-06-05T19:46:31.945Z,70.70
2018-06-05T19:49:00.050Z,70.70
2018-06-05T19:51:28.135Z,71.00
2018-06-05T19:53:56.219Z,71.50
2018-06-05T19:56:24.323Z,71.70
2018-06-05T19:58:52.412Z,72.20
2018-06-05T20:01:20.646Z,72.30
2018-06-05T20:03:48.801Z,72.10
2018-06-05T20:06:16.950Z,72.00
2018-06-05T20:08:45.071Z,72.20
2018-06-05T20:11:13.194Z,72.70
2018-06-05T20:13:41.336Z,72.80
2018-06-05T20:16:09.410Z,73.10
2018-06-05T20:18:37.499Z,73.40
2018-06-05T20:21:05.623Z,73.60
2018-06-05T20:23:33.800Z,73.70
2018-06-05T20:26:02.011Z,74.10
2018-06-05T20:28:30.174Z,74.10
2018-06-05T20:30:58.251Z,74.30
2018-06-05T20:33:26.949Z,74.60
2018-06-05T20:35:55.014Z,74.80
2018-06-05T20:38:23.099Z,74.90
2018-06-05T20:40:51.228Z,75.30
2018-06-05T20:43:19.352Z,75.60
2018-06-05T20:45:47.436Z,75.80
2018-06-05T20:50:43.417Z,77.30
2018-06-05T20:53:11.464Z,76.70
2018-06-05T20:58:07.498Z,76.90
2018-06-05T21:00:38.269Z,77.20
2018-06-05T21:03:06.426Z,77.10
2018-06-05T21:05:34.759Z,77.40
2018-06-05T21:08:02.839Z,77.60
2018-06-05T21:10:32.149Z,77.90
2018-06-05T21:13:00.206Z,78.20
2018-06-05T21:15:28.336Z,79.00
2018-06-05T21:17:56.435Z,78.50
2018-06-05T21:20:24.572Z,78.60
2018-06-05T21:22:52.670Z,78.80
2018-06-05T21:25:20.850Z,78.90
2018-06-05T21:27:48.924Z,78.90
2018-06-05T21:30:17.024Z,79.00
2018-06-05T21:32:45.056Z,79.10
2018-06-05T21:35:13.146Z,79.20
2018-06-05T21:37:41.254Z,79.80
2018-06-05T21:42:39.330Z,81.00
2018-06-05T21:45:07.782Z,80.20
2018-06-05T21:47:35.910Z,80.30
2018-06-05T21:50:04.075Z,80.30
2018-06-05T21:52:32.189Z,80.40
2018-06-05T21:55:00.262Z,80.50
2018-06-05T21:57:28.348Z,80.40
2018-06-05T21:59:56.448Z,80.60
2018-06-05T22:02:24.567Z,80.70
2018-06-05T22:04:52.634Z,81.80
2018-06-05T22:07:20.706Z,81.00
2018-06-05T22:09:48.798Z,81.30
2018-06-05T22:12:16.899Z,81.50
2018-06-05T22:14:45.024Z,81.60
2018-06-05T22:17:13.067Z,81.20
2018-06-05T22:19:41.149Z,81.90
2018-06-05T22:22:09.238Z,82.00
2018-06-05T22:24:37.431Z,82.10
2018-06-05T22:27:05.502Z,82.20
2018-06-05T22:29:33.593Z,82.70
2018-06-05T22:32:01.678Z,82.70
2018-06-05T22:34:29.787Z,83.40
2018-06-05T22:36:57.910Z,83.40
2018-06-05T22:39:26.049Z,83.30
2018-06-05T22:41:54.223Z,83.40
2018-06-05T22:44:22.326Z,83.50
2018-06-05T22:46:50.472Z,83.60
2018-06-05T22:49:18.622Z,83.70
2018-06-05T22:51:46.792Z,83.80
2018-06-05T22:54:15.041Z,84.00
2018-06-05T22:56:43.149Z,84.20
2018-06-05T22:59:11.239Z,84.50
2018-06-05T23:01:39.310Z,84.50
2018-06-05T23:04:07.404Z,84.70
2018-06-05T23:06:35.496Z,84.80
2018-06-05T23:09:04.254Z,84.90
2018-06-05T23:11:32.727Z,85.00
2018-06-05T23:14:00.877Z,85.30
2018-06-05T23:16:28.960Z,85.50
2018-06-05T23:18:57.066Z,85.90
2018-06-05T23:21:25.146Z,86.10
2018-06-05T23:23:53.328Z,87.00
2018-06-05T23:26:21.388Z,87.00
2018-06-05T23:28:49.466Z,87.80
2018-06-05T23:31:17.566Z,87.60
2018-06-05T23:33:45.646Z,87.50
2018-06-05T23:36:13.722Z,87.50
2018-06-05T23:38:41.883Z,87.50
2018-06-05T23:41:09.969Z,87.40
2018-06-05T23:43:38.052Z,88.20
2018-06-05T23:46:06.162Z,88.20
2018-06-05T23:48:34.230Z,87.50
2018-06-05T23:51:02.384Z,87.70
2018-06-05T23:53:30.451Z,87.80
2018-06-05T23:55:58.518Z,88.00
2018-06-05T23:58:26.622Z,88.10
